Time;durP1;ratioP1;P1;durP2;ratioP2;P2;SDS_P1;SDS_P2;PMS_P1;PMS_P2;Temp;Humidity;BMP_temperature;BMP_pressure;BME280_temperature;BME280_humidity;BME280_pressure;Samples;Min_cycle;Max_cycle;Signal;HPM_P1;HPM_P2
2022/04/29 00:00:38;;;;;;;6.43;3.13;;;;;;;;;;5036474;28;20029;-68
2022/04/29 00:03:07;;;;;;;6.30;3.00;;;;;;;;;;5039287;28;20037;-68
2022/04/29 00:05:36;;;;;;;4.22;3.83;;;;;;;;;;5031753;28;20482;-68
2022/04/29 00:08:07;;;;;;;5.43;2.95;;;;;;;;;;5044983;28;20033;-66
2022/04/29 00:10:34;;;;;;;9.95;3.28;;;;;;;;;;5041766;28;20033;-68
2022/04/29 00:13:01;;;;;;;3.70;2.95;;;;;;;;;;5033775;28;20505;-68
2022/04/29 00:15:27;;;;;;;4.93;3.03;;;;;;;;;;5035203;28;20103;-68
2022/04/29 00:17:53;;;;;;;6.32;3.20;;;;;;;;;;5034023;28;20124;-68
2022/04/29 00:20:19;;;;;;;6.38;3.40;;;;;;;;;;5039782;28;20104;-68
2022/04/29 00:22:45;;;;;;;6.30;3.08;;;;;;;;;;5036948;28;20033;-68
2022/04/29 00:25:11;;;;;;;6.53;2.95;;;;;;;;;;5039297;28;20036;-68
2022/04/29 00:27:40;;;;;;;4.15;3.08;;;;;;;;;;5042587;28;20432;-67
2022/04/29 00:30:08;;;;;;;6.60;3.47;;;;;;;;;;5046186;28;20021;-68
2022/04/29 00:32:34;;;;;;;6.15;3.10;;;;;;;;;;5036617;28;20133;-68
2022/04/29 00:35:00;;;;;;;6.43;2.70;;;;;;;;;;5041445;28;20398;-68
2022/04/29 00:37:26;;;;;;;6.72;3.00;;;;;;;;;;5043388;28;20474;-68
2022/04/29 00:39:52;;;;;;;3.95;3.00;;;;;;;;;;5039574;28;20090;-67
2022/04/29 00:42:23;;;;;;;3.08;2.78;;;;;;;;;;5040615;28;20049;-68
2022/04/29 00:44:49;;;;;;;5.68;3.10;;;;;;;;;;5035942;28;20072;-68
2022/04/29 00:47:17;;;;;;;3.80;3.50;;;;;;;;;;5038025;28;20029;-68
2022/04/29 00:49:44;;;;;;;3.67;3.00;;;;;;;;;;5039201;28;20061;-68
2022/04/29 00:52:15;;;;;;;5.20;2.90;;;;;;;;;;5039977;28;20064;-68
2022/04/29 00:54:42;;;;;;;4.50;3.38;;;;;;;;;;5039348;28;20042;-68
2022/04/29 00:57:17;;;;;;;8.57;3.10;;;;;;;;;;5039711;28;20041;-68
2022/04/29 00:59:49;;;;;;;3.70;3.25;;;;;;;;;;5040702;28;20033;-68
2022/04/29 01:02:15;;;;;;;;;;;;;;;;;;5034640;28;20037;-68
2022/04/29 01:04:48;;;;;;;5.15;3.35;;;;;;;;;;5037874;28;19917;-68
2022/04/29 01:07:13;;;;;;;7.90;3.20;;;;;;;;;;5039971;28;20033;-68
2022/04/29 01:09:39;;;;;;;5.20;3.08;;;;;;;;;;5041449;28;20036;-68
2022/04/29 01:12:06;;;;;;;5.28;2.95;;;;;;;;;;5039914;28;20481;-69
2022/04/29 01:14:32;;;;;;;7.72;3.22;;;;;;;;;;5042119;28;20054;-67
2022/04/29 01:16:58;;;;;;;5.85;3.03;;;;;;;;;;5041420;28;20394;-68
2022/04/29 01:19:25;;;;;;;3.50;3.20;;;;;;;;;;5041518;28;20029;-68
2022/04/29 01:21:52;;;;;;;3.78;3.22;;;;;;;;;;5039422;28;20032;-68
2022/04/29 01:24:18;;;;;;;5.40;3.05;;;;;;;;;;5038708;28;20432;-68
2022/04/29 01:26:43;;;;;;;8.57;3.08;;;;;;;;;;5038071;28;20035;-68
2022/04/29 01:29:09;;;;;;;3.97;2.97;;;;;;;;;;5039507;28;20032;-68
2022/04/29 01:31:37;;;;;;;3.53;3.20;;;;;;;;;;5039379;28;20034;-68
2022/04/29 01:34:02;;;;;;;6.07;2.92;;;;;;;;;;5039350;28;20454;-67
2022/04/29 01:36:28;;;;;;;4.10;2.80;;;;;;;;;;5039146;28;20104;-67
2022/04/29 01:38:54;;;;;;;4.45;2.70;;;;;;;;;;5037364;28;20033;-68
2022/04/29 01:41:20;;;;;;;7.47;3.65;;;;;;;;;;5033941;28;20483;-68
2022/04/29 01:43:46;;;;;;;9.55;3.17;;;;;;;;;;5042613;28;20036;-67
2022/04/29 01:46:12;;;;;;;2.83;2.63;;;;;;;;;;5036244;28;20043;-68
2022/04/29 01:48:38;;;;;;;7.47;2.65;;;;;;;;;;5037729;28;20025;-68
2022/04/29 01:51:06;;;;;;;4.50;2.70;;;;;;;;;;5037452;28;20115;-67
2022/04/29 01:53:33;;;;;;;4.07;2.85;;;;;;;;;;5035642;28;20065;-68
2022/04/29 01:55:59;;;;;;;4.53;2.92;;;;;;;;;;5039280;28;20064;-68
2022/04/29 01:58:24;;;;;;;5.45;2.88;;;;;;;;;;5046402;28;20048;-68
2022/04/29 02:00:50;;;;;;;5.65;2.65;;;;;;;;;;5040493;28;20036;-67
2022/04/29 02:03:17;;;;;;;2.40;2.20;;;;;;;;;;5039282;28;20029;-68
2022/04/29 02:05:42;;;;;;;3.25;2.72;;;;;;;;;;5037312;28;20057;-68
2022/04/29 02:08:08;;;;;;;4.82;2.60;;;;;;;;;;5033887;28;20103;-68
2022/04/29 02:10:34;;;;;;;4.35;2.80;;;;;;;;;;5048091;28;20079;-67
2022/04/29 02:13:00;;;;;;;3.17;2.85;;;;;;;;;;5038335;28;20037;-68
2022/04/29 02:15:26;;;;;;;3.15;2.50;;;;;;;;;;5040770;28;20596;-68
2022/04/29 02:17:52;;;;;;;3.38;2.45;;;;;;;;;;5039853;28;20112;-68
2022/04/29 02:20:18;;;;;;;3.53;2.50;;;;;;;;;;5039843;28;20045;-68
2022/04/29 02:22:43;;;;;;;4.18;2.65;;;;;;;;;;5044279;28;20036;-67
2022/04/29 02:25:10;;;;;;;3.28;2.80;;;;;;;;;;5038406;28;20039;-68
2022/04/29 02:27:37;;;;;;;2.88;2.67;;;;;;;;;;5041146;28;20033;-67
2022/04/29 02:30:04;;;;;;;5.65;2.58;;;;;;;;;;5033254;28;20080;-66
2022/04/29 02:32:31;;;;;;;2.55;2.35;;;;;;;;;;5037846;28;20041;-68
2022/04/29 02:34:58;;;;;;;4.70;2.50;;;;;;;;;;5042580;28;20048;-67
2022/04/29 02:37:24;;;;;;;8.30;2.60;;;;;;;;;;5046120;28;20086;-67
2022/04/29 02:39:50;;;;;;;3.00;2.20;;;;;;;;;;5039867;28;20217;-67
2022/04/29 02:42:15;;;;;;;2.67;2.47;;;;;;;;;;5035269;28;20041;-68
2022/04/29 02:44:41;;;;;;;5.30;2.67;;;;;;;;;;5037752;28;20037;-68
2022/04/29 02:47:07;;;;;;;5.63;2.72;;;;;;;;;;5036516;28;20040;-67
2022/04/29 02:49:34;;;;;;;4.78;2.65;;;;;;;;;;5038016;28;20478;-68
2022/04/29 02:51:59;;;;;;;6.05;2.90;;;;;;;;;;5043209;28;20123;-67
2022/04/29 02:54:25;;;;;;;3.65;2.63;;;;;;;;;;5039980;28;20550;-68
2022/04/29 02:56:51;;;;;;;2.80;2.42;;;;;;;;;;5038485;28;20028;-68
2022/04/29 02:59:17;;;;;;;7.85;2.75;;;;;;;;;;5034793;28;20112;-68
2022/04/29 03:01:44;;;;;;;3.88;2.72;;;;;;;;;;5038174;28;20041;-68
2022/04/29 03:04:10;;;;;;;4.75;2.50;;;;;;;;;;5037663;28;20021;-68
2022/04/29 03:06:35;;;;;;;2.70;2.50;;;;;;;;;;5035838;28;20889;-68
2022/04/29 03:09:01;;;;;;;3.53;2.55;;;;;;;;;;5033790;28;20034;-68
2022/04/29 03:11:27;;;;;;;5.40;2.72;;;;;;;;;;5035759;28;20521;-68
2022/04/29 03:13:52;;;;;;;3.83;2.40;;;;;;;;;;5036887;28;20044;-68
2022/04/29 03:16:18;;;;;;;5.28;2.47;;;;;;;;;;5037263;28;20616;-67
2022/04/29 03:18:44;;;;;;;6.82;2.33;;;;;;;;;;5042584;28;20028;-67
2022/04/29 03:21:10;;;;;;;3.88;2.22;;;;;;;;;;5035177;28;20025;-68
2022/04/29 03:23:36;;;;;;;4.80;2.60;;;;;;;;;;5034790;28;20032;-68
2022/04/29 03:26:04;;;;;;;2.33;2.10;;;;;;;;;;5037849;28;20120;-64
2022/04/29 03:28:30;;;;;;;2.25;2.10;;;;;;;;;;5038107;28;20029;-68
2022/04/29 03:30:56;;;;;;;4.78;2.10;;;;;;;;;;5040821;28;20125;-68
2022/04/29 03:33:22;;;;;;;2.85;2.33;;;;;;;;;;5036502;28;20478;-65
2022/04/29 03:35:51;;;;;;;2.30;2.10;;;;;;;;;;5034887;28;20036;-68
2022/04/29 03:38:16;;;;;;;5.78;2.65;;;;;;;;;;5044023;28;20482;-67
2022/04/29 03:40:42;;;;;;;7.35;2.78;;;;;;;;;;5033970;28;20084;-67
2022/04/29 03:43:08;;;;;;;2.67;2.20;;;;;;;;;;5035700;28;20386;-67
2022/04/29 03:45:34;;;;;;;3.88;2.30;;;;;;;;;;5033724;28;20025;-68
2022/04/29 03:48:00;;;;;;;2.42;2.10;;;;;;;;;;5032640;28;20037;-68
2022/04/29 03:50:27;;;;;;;3.55;2.30;;;;;;;;;;5034713;28;20393;-67
2022/04/29 03:52:59;;;;;;;3.42;2.60;;;;;;;;;;5033689;28;20041;-68
2022/04/29 03:55:27;;;;;;;5.03;2.25;;;;;;;;;;5036423;28;20988;-67
2022/04/29 03:57:54;;;;;;;2.88;2.30;;;;;;;;;;5038089;28;20448;-68
2022/04/29 04:00:21;;;;;;;5.70;2.60;;;;;;;;;;5034760;28;20116;-68
2022/04/29 04:02:47;;;;;;;3.25;2.30;;;;;;;;;;5036152;28;20033;-68
2022/04/29 04:05:13;;;;;;;3.75;2.47;;;;;;;;;;5037169;28;20040;-67
2022/04/29 04:07:39;;;;;;;3.38;2.40;;;;;;;;;;5038730;28;20037;-67
2022/04/29 04:10:06;;;;;;;5.15;2.65;;;;;;;;;;5033510;28;20449;-68
2022/04/29 04:12:46;;;;;;;4.70;2.47;;;;;;;;;;5035510;28;20067;-68
2022/04/29 04:15:14;;;;;;;4.55;2.40;;;;;;;;;;5033421;28;20037;-67
2022/04/29 04:17:40;;;;;;;4.93;2.35;;;;;;;;;;5032840;28;20037;-67
2022/04/29 04:20:07;;;;;;;5.53;2.50;;;;;;;;;;5033216;28;20030;-67
2022/04/29 04:22:35;;;;;;;2.83;2.22;;;;;;;;;;5035978;28;20063;-68
2022/04/29 04:25:06;;;;;;;3.08;2.30;;;;;;;;;;5034721;28;20045;-68
2022/04/29 04:27:32;;;;;;;2.78;2.55;;;;;;;;;;5035674;28;20033;-67
2022/04/29 04:29:58;;;;;;;2.47;2.05;;;;;;;;;;5036050;28;20047;-67
2022/04/29 04:32:25;;;;;;;5.40;2.40;;;;;;;;;;5035783;28;20029;-68
2022/04/29 04:34:57;;;;;;;3.42;2.35;;;;;;;;;;5034151;28;20070;-67
2022/04/29 04:37:25;;;;;;;3.67;2.80;;;;;;;;;;5036904;28;20029;-67
2022/04/29 04:39:52;;;;;;;5.60;2.22;;;;;;;;;;5038477;28;20025;-67
2022/04/29 04:42:18;;;;;;;2.20;2.10;;;;;;;;;;5039288;28;20025;-67
2022/04/29 04:44:47;;;;;;;5.22;2.60;;;;;;;;;;5035741;28;20036;-66
2022/04/29 04:47:13;;;;;;;3.10;2.50;;;;;;;;;;5038263;28;20375;-68
2022/04/29 04:49:39;;;;;;;3.35;2.35;;;;;;;;;;5041168;28;20017;-67
2022/04/29 04:52:05;;;;;;;5.78;2.95;;;;;;;;;;5034200;28;20550;-67
2022/04/29 04:54:31;;;;;;;4.30;2.20;;;;;;;;;;5037499;28;20055;-67
2022/04/29 04:56:57;;;;;;;2.42;2.22;;;;;;;;;;5034809;28;20112;-68
2022/04/29 04:59:23;;;;;;;3.10;1.90;;;;;;;;;;5035191;28;20128;-66
2022/04/29 05:01:49;;;;;;;4.18;2.25;;;;;;;;;;5035869;28;20029;-67
2022/04/29 05:04:14;;;;;;;3.03;2.30;;;;;;;;;;5035945;28;20083;-68
2022/04/29 05:06:40;;;;;;;4.30;2.50;;;;;;;;;;5041333;28;20065;-67
2022/04/29 05:09:07;;;;;;;3.53;2.40;;;;;;;;;;5039566;28;20470;-67
2022/04/29 05:11:33;;;;;;;2.10;1.90;;;;;;;;;;5036280;28;20037;-68
2022/04/29 05:13:59;;;;;;;3.17;2.20;;;;;;;;;;5041313;28;20121;-68
2022/04/29 05:16:25;;;;;;;4.20;2.22;;;;;;;;;;5040589;28;20033;-68
2022/04/29 05:18:51;;;;;;;3.10;2.42;;;;;;;;;;5037893;28;20036;-66
2022/04/29 05:21:17;;;;;;;8.98;2.30;;;;;;;;;;5039868;28;20385;-67
2022/04/29 05:23:43;;;;;;;8.68;2.42;;;;;;;;;;5042137;28;20052;-67
2022/04/29 05:26:09;;;;;;;3.53;2.35;;;;;;;;;;5044030;28;20502;-68
2022/04/29 05:28:35;;;;;;;6.65;2.60;;;;;;;;;;5037686;28;20030;-67
2022/04/29 05:31:02;;;;;;;2.60;2.35;;;;;;;;;;5043563;28;20021;-67
2022/04/29 05:33:29;;;;;;;3.03;2.00;;;;;;;;;;5039068;28;20051;-67
2022/04/29 05:35:55;;;;;;;2.78;2.10;;;;;;;;;;5047982;28;20032;-68
2022/04/29 05:38:21;;;;;;;3.13;2.33;;;;;;;;;;5038040;28;20045;-67
2022/04/29 05:43:31;;;;;;;2.47;1.92;;;;;;;;;;5037767;28;20496;-67
2022/04/29 05:45:57;;;;;;;6.43;2.35;;;;;;;;;;5039825;28;20041;-67
2022/04/29 05:48:23;;;;;;;4.38;2.42;;;;;;;;;;5039831;28;20490;-67
2022/04/29 05:50:49;;;;;;;3.45;2.30;;;;;;;;;;5038317;28;20029;-67
2022/04/29 05:53:15;;;;;;;3.30;2.40;;;;;;;;;;5033586;28;20037;-67
2022/04/29 05:55:43;;;;;;;4.47;2.22;;;;;;;;;;5036390;28;20049;-67
2022/04/29 05:58:08;;;;;;;4.53;2.13;;;;;;;;;;5038367;28;20025;-68
2022/04/29 06:00:34;;;;;;;6.10;2.03;;;;;;;;;;5037384;28;20044;-67
2022/04/29 06:03:00;;;;;;;3.08;2.30;;;;;;;;;;5037557;28;20024;-67
2022/04/29 06:05:27;;;;;;;1.95;1.85;;;;;;;;;;5041879;28;20032;-68
2022/04/29 06:07:53;;;;;;;3.05;2.22;;;;;;;;;;5037847;28;20068;-67
2022/04/29 06:10:22;;;;;;;6.85;2.38;;;;;;;;;;5038434;28;20036;-67
2022/04/29 06:12:48;;;;;;;3.10;2.05;;;;;;;;;;5038076;28;20479;-67
2022/04/29 06:15:15;;;;;;;2.38;2.00;;;;;;;;;;5037161;28;20115;-68
2022/04/29 06:17:41;;;;;;;3.28;2.45;;;;;;;;;;5033924;28;20028;-67
2022/04/29 06:20:07;;;;;;;5.35;2.25;;;;;;;;;;5034720;28;20037;-67
2022/04/29 06:22:33;;;;;;;2.80;2.17;;;;;;;;;;5039217;28;20095;-67
2022/04/29 06:24:59;;;;;;;2.65;2.00;;;;;;;;;;5038688;28;20482;-67
2022/04/29 06:27:24;;;;;;;2.70;1.98;;;;;;;;;;5035798;28;20385;-67
2022/04/29 06:29:50;;;;;;;4.50;2.20;;;;;;;;;;5032874;28;20475;-67
2022/04/29 06:32:16;;;;;;;7.15;2.65;;;;;;;;;;5036910;28;20160;-67
2022/04/29 06:34:43;;;;;;;2.80;2.45;;;;;;;;;;5041178;28;20068;-66
2022/04/29 06:37:10;;;;;;;3.13;1.90;;;;;;;;;;5041602;28;20041;-66
2022/04/29 06:39:37;;;;;;;5.35;2.40;;;;;;;;;;5039571;28;20393;-66
2022/04/29 06:42:04;;;;;;;2.65;2.25;;;;;;;;;;5037661;28;20029;-65
2022/04/29 06:44:30;;;;;;;3.08;2.35;;;;;;;;;;5039350;28;20029;-67
2022/04/29 06:46:55;;;;;;;2.95;2.30;;;;;;;;;;5038614;28;20128;-66
2022/04/29 06:49:21;;;;;;;7.00;1.90;;;;;;;;;;5041114;28;20033;-67
2022/04/29 06:51:47;;;;;;;4.13;2.20;;;;;;;;;;5040128;28;20033;-67
2022/04/29 06:54:12;;;;;;;3.88;2.50;;;;;;;;;;5035954;28;20046;-67
2022/04/29 06:56:38;;;;;;;3.70;2.28;;;;;;;;;;5039858;28;20044;-66
2022/04/29 06:59:04;;;;;;;3.90;2.30;;;;;;;;;;5039385;28;20116;-67
2022/04/29 07:01:30;;;;;;;4.50;1.90;;;;;;;;;;5041442;28;20081;-68
2022/04/29 07:03:56;;;;;;;9.20;2.60;;;;;;;;;;5034559;28;20742;-67
2022/04/29 07:06:22;;;;;;;10.57;2.15;;;;;;;;;;5037591;28;20094;-67
2022/04/29 07:08:48;;;;;;;3.25;2.20;;;;;;;;;;5041035;28;20536;-67
2022/04/29 07:11:13;;;;;;;3.38;1.88;;;;;;;;;;5035516;28;20041;-67
2022/04/29 07:13:42;;;;;;;2.58;1.90;;;;;;;;;;5035900;28;20025;-68
2022/04/29 07:16:08;;;;;;;4.70;2.20;;;;;;;;;;5036000;28;20482;-68
2022/04/29 07:18:34;;;;;;;5.90;2.60;;;;;;;;;;5040240;28;20029;-67
2022/04/29 07:21:00;;;;;;;3.83;2.10;;;;;;;;;;5040315;28;20029;-67
2022/04/29 07:23:26;;;;;;;5.22;2.33;;;;;;;;;;5040257;28;20033;-67
2022/04/29 07:25:51;;;;;;;10.13;3.00;;;;;;;;;;5040053;28;20033;-67
2022/04/29 07:28:17;;;;;;;9.65;3.85;;;;;;;;;;5034663;28;20401;-67
2022/04/29 07:30:43;;;;;;;8.52;4.30;;;;;;;;;;5036787;28;20504;-65
2022/04/29 07:33:08;;;;;;;9.52;3.60;;;;;;;;;;5037550;28;20436;-67
2022/04/29 07:43:47;;;;;;;12.85;2.92;;;;;;;;;;5039690;28;20083;-67
2022/04/29 07:46:13;;;;;;;6.47;2.90;;;;;;;;;;5038747;28;20033;-66
2022/04/29 07:48:39;;;;;;;4.10;2.40;;;;;;;;;;5037953;28;20516;-67
2022/04/29 07:51:06;;;;;;;6.22;2.72;;;;;;;;;;5041146;28;20063;-67
2022/04/29 07:53:32;;;;;;;13.57;3.25;;;;;;;;;;5037776;28;20492;-66
2022/04/29 07:55:58;;;;;;;10.75;3.25;;;;;;;;;;5036708;28;20079;-66
2022/04/29 07:58:23;;;;;;;9.52;2.67;;;;;;;;;;5032912;28;20479;-66
2022/04/29 08:00:50;;;;;;;5.75;2.50;;;;;;;;;;5039890;28;20470;-66
2022/04/29 08:03:16;;;;;;;6.97;3.30;;;;;;;;;;5038786;28;20524;-67
2022/04/29 08:05:42;;;;;;;14.20;2.72;;;;;;;;;;5039758;28;20038;-67
2022/04/29 08:08:07;;;;;;;7.40;3.60;;;;;;;;;;5035152;28;20040;-66
2022/04/29 08:10:33;;;;;;;5.55;3.00;;;;;;;;;;5041663;28;20049;-66
2022/04/29 08:13:02;;;;;;;7.10;2.70;;;;;;;;;;5036752;28;20037;-66
2022/04/29 08:15:29;;;;;;;9.65;3.28;;;;;;;;;;5033445;28;20041;-66
2022/04/29 08:17:57;;;;;;;9.55;3.20;;;;;;;;;;5034538;28;20066;-66
2022/04/29 08:20:23;;;;;;;8.95;2.88;;;;;;;;;;5032337;28;20125;-66
2022/04/29 08:22:49;;;;;;;9.43;2.60;;;;;;;;;;5037596;28;20084;-66
2022/04/29 08:25:17;;;;;;;6.63;2.67;;;;;;;;;;5037004;28;20494;-66
2022/04/29 08:27:43;;;;;;;5.85;2.65;;;;;;;;;;5038196;28;20489;-66
2022/04/29 08:30:09;;;;;;;6.30;2.55;;;;;;;;;;5039053;28;20040;-66
2022/04/29 08:32:39;;;;;;;8.52;2.67;;;;;;;;;;5033788;28;20035;-66
2022/04/29 08:35:06;;;;;;;3.83;2.30;;;;;;;;;;5032937;28;20025;-67
2022/04/29 08:37:32;;;;;;;15.77;2.60;;;;;;;;;;5036871;28;20108;-66
2022/04/29 08:39:59;;;;;;;5.10;2.30;;;;;;;;;;5035237;28;20120;-66
2022/04/29 08:42:26;;;;;;;7.30;2.30;;;;;;;;;;5038811;28;20028;-65
2022/04/29 08:44:53;;;;;;;3.60;1.70;;;;;;;;;;5036337;28;20044;-66
2022/04/29 08:47:19;;;;;;;3.42;1.70;;;;;;;;;;5040383;28;20021;-65
2022/04/29 08:49:46;;;;;;;9.38;2.42;;;;;;;;;;5043447;28;20025;-66
2022/04/29 08:52:14;;;;;;;4.20;1.98;;;;;;;;;;5040053;28;20047;-65
2022/04/29 09:00:22;;;;;;;16.05;2.40;;;;;;;;;;5041084;28;20052;-65
2022/04/29 09:02:47;;;;;;;10.38;2.42;;;;;;;;;;5040726;28;20040;-65
2022/04/29 09:05:13;;;;;;;7.00;2.35;;;;;;;;;;5043680;28;20037;-64
2022/04/29 09:08:00;;;;;;;3.83;1.92;;;;;;;;;;5041233;28;20082;-64
2022/04/29 09:10:35;;;;;;;2.92;1.80;;;;;;;;;;5044758;28;20619;-63
2022/04/29 09:13:25;;;;;;;3.20;1.70;;;;;;;;;;5042642;28;20095;-64
2022/04/29 09:15:52;;;;;;;2.83;1.73;;;;;;;;;;5040498;28;20025;-63
2022/04/29 09:18:33;;;;;;;5.13;2.00;;;;;;;;;;5037205;28;20032;-63
2022/04/29 09:21:02;;;;;;;5.15;2.28;;;;;;;;;;5038655;28;20076;-63
2022/04/29 09:23:29;;;;;;;3.70;2.20;;;;;;;;;;5039578;28;20041;-63
2022/04/29 09:25:57;;;;;;;9.98;2.15;;;;;;;;;;5042102;28;20036;-63
2022/04/29 09:28:24;;;;;;;4.20;1.90;;;;;;;;;;5040256;28;20029;-63
2022/04/29 09:30:54;;;;;;;4.63;2.33;;;;;;;;;;5031770;28;20494;-63
2022/04/29 09:33:22;;;;;;;4.30;1.70;;;;;;;;;;5037651;28;20033;-63
2022/04/29 09:35:49;;;;;;;5.43;2.28;;;;;;;;;;5036442;28;20091;-63
2022/04/29 09:41:00;;;;;;;2.88;1.65;;;;;;;;;;5039456;28;20096;-63
2022/04/29 09:43:44;;;;;;;3.70;2.35;;;;;;;;;;5041301;28;20026;-63
2022/04/29 09:46:18;;;;;;;2.78;1.80;;;;;;;;;;5045229;28;20041;-63
2022/04/29 09:49:03;;;;;;;2.55;2.10;;;;;;;;;;5039926;28;20033;-62
2022/04/29 09:51:51;;;;;;;5.47;2.20;;;;;;;;;;5038540;28;20128;-62
2022/04/29 09:54:17;;;;;;;12.52;2.40;;;;;;;;;;5039940;28;20122;-63
2022/04/29 09:57:07;;;;;;;3.30;1.90;;;;;;;;;;5034037;28;20033;-61
2022/04/29 09:59:46;;;;;;;5.25;1.70;;;;;;;;;;5037357;28;20045;-62
2022/04/29 10:02:14;;;;;;;3.45;1.80;;;;;;;;;;5041095;28;20493;-62
2022/04/29 10:04:42;;;;;;;3.92;1.80;;;;;;;;;;5042284;28;20057;-62
2022/04/29 10:07:10;;;;;;;2.90;1.88;;;;;;;;;;5041717;28;20049;-62
2022/04/29 10:09:40;;;;;;;6.05;2.25;;;;;;;;;;5041001;28;20509;-63
2022/04/29 10:12:13;;;;;;;5.57;2.20;;;;;;;;;;5039271;28;20037;-62
2022/04/29 10:14:41;;;;;;;10.48;2.33;;;;;;;;;;5040490;28;20191;-62
2022/04/29 10:22:46;;;;;;;4.40;2.05;;;;;;;;;;5041538;28;20047;-61
2022/04/29 10:25:13;;;;;;;6.65;2.30;;;;;;;;;;5039778;28;20450;-62
2022/04/29 10:27:40;;;;;;;10.85;2.92;;;;;;;;;;5038160;28;20029;-62
2022/04/29 10:30:07;;;;;;;3.25;2.17;;;;;;;;;;5040087;28;20032;-62
2022/04/29 10:33:03;;;;;;;9.07;2.30;;;;;;;;;;5034103;28;20100;-61
2022/04/29 10:35:45;;;;;;;4.88;2.20;;;;;;;;;;5039175;28;20033;-61
2022/04/29 10:38:31;;;;;;;;;;;;;;;;;;5040523;28;20029;-62
2022/04/29 10:41:23;;;;;;;7.75;2.10;;;;;;;;;;5036904;28;20380;-62
2022/04/29 10:43:55;;;;;;;1.80;1.70;;;;;;;;;;5039834;28;20526;-62
2022/04/29 10:46:20;;;;;;;4.43;2.50;;;;;;;;;;5042376;28;20041;-62
2022/04/29 10:48:48;;;;;;;8.77;2.30;;;;;;;;;;5041962;28;20028;-61
2022/04/29 10:51:29;;;;;;;2.65;2.00;;;;;;;;;;5040440;28;20048;-62
2022/04/29 10:53:57;;;;;;;2.65;2.35;;;;;;;;;;5040951;28;20059;-63
2022/04/29 10:56:32;;;;;;;5.38;2.17;;;;;;;;;;5038537;28;20422;-62
2022/04/29 10:59:03;;;;;;;5.85;2.15;;;;;;;;;;5040669;28;20459;-62
2022/04/29 11:01:33;;;;;;;3.13;1.90;;;;;;;;;;5040181;28;20108;-62
2022/04/29 11:04:15;;;;;;;13.82;2.63;;;;;;;;;;5038331;28;20087;-62
2022/04/29 11:06:46;;;;;;;2.92;2.08;;;;;;;;;;5036589;28;20397;-62
2022/04/29 11:09:25;;;;;;;3.22;2.40;;;;;;;;;;5037318;28;20064;-62
2022/04/29 11:11:51;;;;;;;3.72;2.42;;;;;;;;;;5042564;28;20060;-62
2022/04/29 11:14:17;;;;;;;1.98;1.75;;;;;;;;;;5041729;28;20025;-62
2022/04/29 11:16:52;;;;;;;4.97;2.30;;;;;;;;;;5042758;28;20036;-62
2022/04/29 11:19:33;;;;;;;3.50;2.25;;;;;;;;;;5037658;28;20513;-62
2022/04/29 11:24:48;;;;;;;5.68;2.35;;;;;;;;;;5039593;28;20044;-62
2022/04/29 11:27:14;;;;;;;8.40;3.05;;;;;;;;;;5038530;28;20068;-62
2022/04/29 11:29:46;;;;;;;5.35;2.65;;;;;;;;;;5040102;28;20108;-62
2022/04/29 11:32:13;;;;;;;3.95;2.40;;;;;;;;;;5036783;28;20064;-62
2022/04/29 11:34:58;;;;;;;3.08;2.30;;;;;;;;;;5041909;28;20496;-62
2022/04/29 11:37:34;;;;;;;5.75;2.92;;;;;;;;;;5035090;28;20037;-61
2022/04/29 11:40:08;;;;;;;3.03;2.30;;;;;;;;;;5040246;28;20060;-62
2022/04/29 11:42:34;;;;;;;2.78;2.00;;;;;;;;;;5043195;28;20036;-62
2022/04/29 11:45:07;;;;;;;3.47;2.33;;;;;;;;;;5034238;28;20036;-62
2022/04/29 11:47:33;;;;;;;5.18;2.10;;;;;;;;;;5038719;28;20030;-62
2022/04/29 11:50:01;;;;;;;2.38;2.17;;;;;;;;;;5039409;28;20036;-62
2022/04/29 11:52:30;;;;;;;2.75;1.83;;;;;;;;;;5041477;28;20038;-62
2022/04/29 11:55:01;;;;;;;8.50;3.05;;;;;;;;;;5036665;28;20064;-61
2022/04/29 11:57:30;;;;;;;2.65;2.33;;;;;;;;;;5040406;28;20392;-61
2022/04/29 11:59:56;;;;;;;6.85;2.00;;;;;;;;;;5037435;28;20040;-62
2022/04/29 12:02:24;;;;;;;5.28;2.60;;;;;;;;;;5037023;28;20024;-62
2022/04/29 12:04:57;;;;;;;4.60;2.28;;;;;;;;;;5036203;28;20025;-61
2022/04/29 12:07:24;;;;;;;4.63;2.30;;;;;;;;;;5036588;28;20043;-62
2022/04/29 12:09:51;;;;;;;5.40;2.38;;;;;;;;;;5039852;28;20060;-61
2022/04/29 12:12:29;;;;;;;11.07;3.08;;;;;;;;;;5039191;28;20032;-63
2022/04/29 12:14:56;;;;;;;8.40;1.90;;;;;;;;;;5040085;28;20117;-61
2022/04/29 12:17:41;;;;;;;2.97;2.22;;;;;;;;;;5049393;28;20035;-61
2022/04/29 12:20:09;;;;;;;8.50;2.08;;;;;;;;;;5040278;28;20486;-62
2022/04/29 12:22:36;;;;;;;5.57;2.20;;;;;;;;;;5044701;28;20029;-61
2022/04/29 12:25:22;;;;;;;3.88;1.90;;;;;;;;;;5041199;28;20063;-62
2022/04/29 12:28:26;;;;;;;4.07;2.03;;;;;;;;;;5037521;28;20067;-61
2022/04/29 12:36:50;;;;;;;12.02;2.20;;;;;;;;;;5038579;28;20478;-61
2022/04/29 12:39:39;;;;;;;5.63;2.25;;;;;;;;;;5040675;28;20048;-62
2022/04/29 12:42:13;;;;;;;5.47;2.22;;;;;;;;;;5041734;28;20045;-62
2022/04/29 12:47:38;;;;;;;2.67;2.10;;;;;;;;;;5043136;28;20512;-61
2022/04/29 12:50:23;;;;;;;2.55;2.33;;;;;;;;;;5046528;28;20371;-60
2022/04/29 12:53:02;;;;;;;5.57;2.25;;;;;;;;;;5047042;28;20489;-60
2022/04/29 12:55:37;;;;;;;4.50;2.08;;;;;;;;;;5040947;28;20052;-61
2022/04/29 12:58:12;;;;;;;2.70;2.33;;;;;;;;;;5038273;28;20047;-61
2022/04/29 13:00:40;;;;;;;3.08;2.38;;;;;;;;;;5042706;28;20067;-62
2022/04/29 13:03:18;;;;;;;5.60;2.03;;;;;;;;;;5039829;28;20116;-61
2022/04/29 13:05:43;;;;;;;3.10;2.00;;;;;;;;;;5043215;28;20039;-61
2022/04/29 13:08:09;;;;;;;2.38;1.80;;;;;;;;;;5041935;28;20025;-61
2022/04/29 13:10:42;;;;;;;3.35;2.35;;;;;;;;;;5039922;28;20029;-61
2022/04/29 13:13:08;;;;;;;5.15;2.20;;;;;;;;;;5038978;28;20044;-61
2022/04/29 13:15:34;;;;;;;7.15;2.08;;;;;;;;;;5039402;28;20017;-61
2022/04/29 13:18:00;;;;;;;5.22;2.67;;;;;;;;;;5035879;28;20033;-61
2022/04/29 13:20:26;;;;;;;7.75;2.03;;;;;;;;;;5036971;28;20024;-61
2022/04/29 13:22:55;;;;;;;3.53;2.42;;;;;;;;;;5036004;28;20496;-60
2022/04/29 13:25:21;;;;;;;3.60;2.20;;;;;;;;;;5044363;28;20083;-61
2022/04/29 13:27:46;;;;;;;5.45;2.13;;;;;;;;;;5038774;28;20386;-61
2022/04/29 13:30:12;;;;;;;2.53;2.00;;;;;;;;;;5038126;28;20026;-61
2022/04/29 13:32:38;;;;;;;4.47;2.00;;;;;;;;;;5035556;28;20040;-61
2022/04/29 13:35:04;;;;;;;7.18;2.17;;;;;;;;;;5040181;28;20063;-60
2022/04/29 13:37:32;;;;;;;6.10;1.90;;;;;;;;;;5038387;28;20060;-61
2022/04/29 13:40:00;;;;;;;4.95;1.80;;;;;;;;;;5042561;28;20108;-61
2022/04/29 13:42:29;;;;;;;2.85;1.83;;;;;;;;;;5036904;28;20033;-61
2022/04/29 13:44:56;;;;;;;3.47;2.03;;;;;;;;;;5037345;28;20037;-61
2022/04/29 13:47:22;;;;;;;4.18;1.80;;;;;;;;;;5038171;28;20143;-61
2022/04/29 13:49:49;;;;;;;5.13;2.60;;;;;;;;;;5042829;28;20139;-61
2022/04/29 13:54:59;;;;;;;4.72;2.00;;;;;;;;;;5043786;28;20521;-62
2022/04/29 13:57:24;;;;;;;3.90;1.75;;;;;;;;;;5041271;28;20063;-59
2022/04/29 13:59:50;;;;;;;7.93;1.92;;;;;;;;;;5040511;28;20112;-61
2022/04/29 14:02:16;;;;;;;10.60;2.38;;;;;;;;;;5040867;28;20128;-61
2022/04/29 14:04:42;;;;;;;3.35;2.13;;;;;;;;;;5044407;28;20055;-61
2022/04/29 14:07:08;;;;;;;5.82;2.30;;;;;;;;;;5038818;28;20553;-61
2022/04/29 14:09:33;;;;;;;3.90;2.20;;;;;;;;;;5040966;28;20402;-61
2022/04/29 14:11:59;;;;;;;4.70;1.88;;;;;;;;;;5038716;28;20489;-61
2022/04/29 14:14:25;;;;;;;6.13;2.10;;;;;;;;;;5038247;28;20025;-60
2022/04/29 14:16:51;;;;;;;4.93;1.60;;;;;;;;;;5048189;28;20028;-61
2022/04/29 14:19:18;;;;;;;2.63;2.17;;;;;;;;;;5041713;28;20458;-61
2022/04/29 14:21:44;;;;;;;2.92;2.05;;;;;;;;;;5043604;28;20037;-61
2022/04/29 14:24:10;;;;;;;7.45;2.38;;;;;;;;;;5039769;28;20381;-61
2022/04/29 14:26:36;;;;;;;8.18;1.73;;;;;;;;;;5039418;28;20108;-61
2022/04/29 14:29:02;;;;;;;9.00;2.08;;;;;;;;;;5043757;28;20387;-61
2022/04/29 14:31:30;;;;;;;3.92;2.08;;;;;;;;;;5041452;28;20065;-61
2022/04/29 14:33:58;;;;;;;4.50;2.10;;;;;;;;;;5038795;28;20127;-61
2022/04/29 14:36:27;;;;;;;2.55;1.95;;;;;;;;;;5036204;28;20041;-61
2022/04/29 14:38:53;;;;;;;9.02;2.20;;;;;;;;;;5038883;28;20048;-61
2022/04/29 14:41:19;;;;;;;7.47;1.92;;;;;;;;;;5039741;28;20037;-62
2022/04/29 14:43:45;;;;;;;4.28;1.92;;;;;;;;;;5043459;28;20057;-61
2022/04/29 14:46:11;;;;;;;4.28;1.92;;;;;;;;;;5044289;28;20061;-61
2022/04/29 14:48:38;;;;;;;2.53;2.00;;;;;;;;;;5042114;28;20040;-61
2022/04/29 14:51:04;;;;;;;3.17;1.80;;;;;;;;;;5040841;28;20521;-61
2022/04/29 14:53:33;;;;;;;2.50;2.20;;;;;;;;;;5039226;28;20065;-61
2022/04/29 14:56:01;;;;;;;4.53;2.10;;;;;;;;;;5040147;28;20173;-61
2022/04/29 14:58:27;;;;;;;2.03;1.83;;;;;;;;;;5037969;28;20650;-61
2022/04/29 15:00:53;;;;;;;2.55;2.20;;;;;;;;;;5037767;28;20026;-61
2022/04/29 15:03:18;;;;;;;10.65;2.88;;;;;;;;;;5036406;28;20048;-61
2022/04/29 15:05:44;;;;;;;4.78;1.88;;;;;;;;;;5044509;28;20049;-61
2022/04/29 15:08:09;;;;;;;3.58;2.38;;;;;;;;;;5046198;28;20478;-61
2022/04/29 15:16:03;;;;;;;3.13;1.75;;;;;;;;;;5041827;28;20364;-61
2022/04/29 15:18:29;;;;;;;4.90;1.98;;;;;;;;;;5043739;28;20029;-61
2022/04/29 15:20:55;;;;;;;3.15;1.92;;;;;;;;;;5040176;28;20051;-61
2022/04/29 15:23:20;;;;;;;5.78;1.90;;;;;;;;;;5034927;28;20032;-60
2022/04/29 15:25:47;;;;;;;5.70;1.88;;;;;;;;;;5046564;28;20037;-60
2022/04/29 15:28:12;;;;;;;3.83;1.90;;;;;;;;;;5042066;28;20064;-61
2022/04/29 15:30:38;;;;;;;3.33;1.60;;;;;;;;;;5040950;28;20059;-61
2022/04/29 15:33:05;;;;;;;1.98;1.77;;;;;;;;;;5040048;28;20058;-61